Time,TemperatureF,DewpointF,PressureIn,WindDirection,WindDirectionDegrees,WindSpeedMPH,WindSpeedGustMPH,Humidity,HourlyPrecipIn,Conditions,Clouds,dailyrainin,SoftwareType,DateUTC
2013-10-08 00:01:00,42.6,39.6,30.26,West,270,0.0,0.0,89,0.00,,,0.00,WUHU216HW,2013-10-08 04:01:00,
2013-10-08 00:02:00,42.6,39.6,30.26,West,270,0.0,0.0,89,0.00,,,0.00,WUHU216HW,2013-10-08 04:02:00,
2013-10-08 00:08:00,42.6,39.6,30.27,West,270,0.0,0.0,89,0.00,,,0.00,WUHU216HW,2013-10-08 04:08:00,
2013-10-08 00:13:00,42.6,39.6,30.27,West,270,0.0,0.0,89,0.00,,,0.00,WUHU216HW,2013-10-08 04:13:00,
2013-10-08 00:18:00,42.6,39.9,30.26,WSW,248,0.0,0.0,90,0.00,,,0.00,WUHU216HW,2013-10-08 04:18:00,
2013-10-08 00:23:00,42.6,39.9,30.27,West,270,0.0,0.0,90,0.00,,,0.00,WUHU216HW,2013-10-08 04:23:00,
2013-10-08 00:28:00,42.6,39.9,30.27,West,270,0.0,0.0,90,0.00,,,0.00,WUHU216HW,2013-10-08 04:28:00,
2013-10-08 00:33:00,42.4,39.7,30.27,WNW,293,0.0,0.0,90,0.00,,,0.00,WUHU216HW,2013-10-08 04:33:00,
2013-10-08 00:38:00,42.0,39.3,30.27,WNW,293,0.0,0.0,90,0.00,,,0.00,WUHU216HW,2013-10-08 04:38:00,
2013-10-08 00:43:00,41.9,39.2,30.27,West,270,0.0,0.0,90,0.00,,,0.00,WUHU216HW,2013-10-08 04:43:00,
2013-10-08 00:48:00,41.9,39.2,30.27,WSW,248,0.0,0.0,90,0.00,,,0.00,WUHU216HW,2013-10-08 04:48:00,
2013-10-08 00:53:00,41.9,39.2,30.28,WNW,293,0.0,0.0,90,0.00,,,0.00,WUHU216HW,2013-10-08 04:53:00,
2013-10-08 00:58:00,41.9,39.2,30.28,West,270,0.0,0.0,90,0.00,,,0.00,WUHU216HW,2013-10-08 04:58:00,
2013-10-08 01:03:00,41.9,39.2,30.28,West,270,0.0,0.0,90,0.00,,,0.00,WUHU216HW,2013-10-08 05:03:00,
2013-10-08 01:08:00,41.5,39.1,30.28,WNW,293,0.0,0.0,91,0.00,,,0.00,WUHU216HW,2013-10-08 05:08:00,
2013-10-08 01:13:00,41.5,39.1,30.28,WNW,293,0.0,0.0,91,0.00,,,0.00,WUHU216HW,2013-10-08 05:13:00,
2013-10-08 01:18:00,41.3,38.9,30.28,WNW,293,0.0,0.0,91,0.00,,,0.00,WUHU216HW,2013-10-08 05:18:00,
2013-10-08 01:23:00,41.3,38.9,30.29,WNW,293,0.0,0.0,91,0.00,,,0.00,WUHU216HW,2013-10-08 05:23:00,
2013-10-08 01:28:00,41.1,38.7,30.29,West,270,0.0,0.0,91,0.00,,,0.00,WUHU216HW,2013-10-08 05:28:00,
2013-10-08 01:34:00,41.1,38.4,30.29,West,270,0.0,0.0,90,0.00,,,0.00,WUHU216HW,2013-10-08 05:34:00,
2013-10-08 01:39:00,40.8,38.1,30.29,WNW,293,0.0,0.0,90,0.00,,,0.00,WUHU216HW,2013-10-08 05:39:00,
2013-10-08 01:44:00,40.8,38.1,30.29,WNW,293,0.0,0.0,90,0.00,,,0.00,WUHU216HW,2013-10-08 05:44:00,
2013-10-08 01:49:00,40.6,37.9,30.29,WNW,293,0.0,0.0,91,0.00,,,0.00,WUHU216HW,2013-10-08 05:49:00,
2013-10-08 01:54:00,40.6,38.2,30.30,WNW,293,0.0,0.0,91,0.00,,,0.00,WUHU216HW,2013-10-08 05:54:00,
2013-10-08 01:59:00,40.6,38.2,30.30,WNW,293,0.0,0.0,91,0.00,,,0.00,WUHU216HW,2013-10-08 05:59:00,
2013-10-08 02:04:00,40.4,38.0,30.30,WNW,293,0.0,0.0,91,0.00,,,0.00,WUHU216HW,2013-10-08 06:04:00,
2013-10-08 02:09:00,40.2,37.8,30.30,WNW,293,0.0,0.0,91,0.00,,,0.00,WUHU216HW,2013-10-08 06:09:00,
2013-10-08 02:14:00,40.2,37.8,30.30,West,270,0.0,0.0,91,0.00,,,0.00,WUHU216HW,2013-10-08 06:14:00,
2013-10-08 02:19:00,40.2,37.8,30.30,West,270,0.0,0.0,91,0.00,,,0.00,WUHU216HW,2013-10-08 06:19:00,
2013-10-08 02:24:00,40.2,37.8,30.31,WNW,293,0.0,0.0,91,0.00,,,0.00,WUHU216HW,2013-10-08 06:24:00,
2013-10-08 02:29:00,40.4,38.0,30.31,West,270,0.0,0.0,91,0.00,,,0.00,WUHU216HW,2013-10-08 06:29:00,
2013-10-08 02:34:00,40.4,38.0,30.31,WSW,248,0.0,0.0,91,0.00,,,0.00,WUHU216HW,2013-10-08 06:34:00,
2013-10-08 02:39:00,40.4,38.0,30.31,WNW,293,0.0,0.0,91,0.00,,,0.00,WUHU216HW,2013-10-08 06:39:00,
2013-10-08 02:45:00,40.1,37.6,30.31,West,270,0.0,0.0,91,0.00,,,0.00,WUHU216HW,2013-10-08 06:45:00,
2013-10-08 02:50:00,40.1,37.6,30.31,WNW,293,0.0,0.0,91,0.00,,,0.00,WUHU216HW,2013-10-08 06:50:00,
2013-10-08 02:55:00,40.2,37.8,30.31,West,270,0.0,0.0,91,0.00,,,0.00,WUHU216HW,2013-10-08 06:55:00,
2013-10-08 03:00:00,40.2,37.8,30.31,WNW,293,0.0,0.0,91,0.00,,,0.00,WUHU216HW,2013-10-08 07:00:00,
2013-10-08 03:05:00,40.1,37.6,30.31,WNW,293,0.0,0.0,91,0.00,,,0.00,WUHU216HW,2013-10-08 07:05:00,
2013-10-08 03:10:00,40.1,37.6,30.31,West,270,0.0,0.0,91,0.00,,,0.00,WUHU216HW,2013-10-08 07:10:00,
2013-10-08 03:15:00,39.9,37.4,30.31,WNW,293,0.0,0.0,91,0.00,,,0.00,WUHU216HW,2013-10-08 07:15:00,
2013-10-08 03:20:00,39.7,37.3,30.32,WNW,293,0.0,0.0,91,0.00,,,0.00,WUHU216HW,2013-10-08 07:20:00,
2013-10-08 03:25:00,39.5,37.1,30.32,WNW,293,0.0,0.0,91,0.00,,,0.00,WUHU216HW,2013-10-08 07:25:00,
2013-10-08 03:30:00,39.5,37.1,30.33,WNW,293,0.0,0.0,91,0.00,,,0.00,WUHU216HW,2013-10-08 07:30:00,
2013-10-08 03:35:00,39.5,37.1,30.33,WNW,293,0.0,0.0,91,0.00,,,0.00,WUHU216HW,2013-10-08 07:35:00,
2013-10-08 03:40:00,39.3,36.9,30.33,West,270,0.0,0.0,91,0.00,,,0.00,WUHU216HW,2013-10-08 07:40:00,
2013-10-08 03:45:00,39.3,36.9,30.33,WNW,293,0.0,0.0,91,0.00,,,0.00,WUHU216HW,2013-10-08 07:45:00,
2013-10-08 03:50:00,39.0,36.8,30.33,WNW,293,0.0,0.0,92,0.00,,,0.00,WUHU216HW,2013-10-08 07:50:00,
2013-10-08 03:55:00,39.0,36.8,30.33,WNW,293,0.0,0.0,92,0.00,,,0.00,WUHU216HW,2013-10-08 07:55:00,
2013-10-08 04:00:00,39.0,36.8,30.33,West,270,0.0,0.0,92,0.00,,,0.00,WUHU216HW,2013-10-08 08:00:00,
2013-10-08 04:05:00,39.0,36.8,30.33,WNW,293,0.0,0.0,92,0.00,,,0.00,WUHU216HW,2013-10-08 08:05:00,
2013-10-08 04:10:00,39.0,36.8,30.33,WNW,293,0.0,0.0,92,0.00,,,0.00,WUHU216HW,2013-10-08 08:10:00,
2013-10-08 04:16:00,39.0,36.8,30.33,WNW,293,0.0,0.0,92,0.00,,,0.00,WUHU216HW,2013-10-08 08:16:00,
2013-10-08 04:21:00,39.0,36.8,30.34,West,270,0.0,0.0,92,0.00,,,0.00,WUHU216HW,2013-10-08 08:21:00,
2013-10-08 04:26:00,39.3,37.2,30.34,WNW,293,0.0,0.0,92,0.00,,,0.00,WUHU216HW,2013-10-08 08:26:00,
2013-10-08 04:31:00,39.2,37.0,30.35,West,270,0.0,0.0,92,0.00,,,0.00,WUHU216HW,2013-10-08 08:31:00,
2013-10-08 04:36:00,39.0,36.8,30.35,West,270,0.0,0.0,92,0.00,,,0.00,WUHU216HW,2013-10-08 08:36:00,
2013-10-08 04:41:00,39.0,36.8,30.34,WSW,248,0.0,0.0,92,0.00,,,0.00,WUHU216HW,2013-10-08 08:41:00,
2013-10-08 04:46:00,39.0,36.8,30.35,West,270,0.0,0.0,92,0.00,,,0.00,WUHU216HW,2013-10-08 08:46:00,
2013-10-08 04:51:00,39.0,36.8,30.35,WNW,293,0.0,0.0,92,0.00,,,0.00,WUHU216HW,2013-10-08 08:51:00,
2013-10-08 04:56:00,39.0,36.8,30.35,WNW,293,0.0,0.0,92,0.00,,,0.00,WUHU216HW,2013-10-08 08:56:00,
2013-10-08 05:01:00,39.0,36.8,30.35,West,270,0.0,0.0,92,0.00,,,0.00,WUHU216HW,2013-10-08 09:01:00,
2013-10-08 05:06:00,39.3,37.2,30.35,West,270,0.0,0.0,92,0.00,,,0.00,WUHU216HW,2013-10-08 09:06:00,
2013-10-08 05:11:00,39.3,37.2,30.35,West,270,0.0,0.0,92,0.00,,,0.00,WUHU216HW,2013-10-08 09:11:00,
2013-10-08 05:16:00,39.0,36.8,30.35,WNW,293,0.0,0.0,92,0.00,,,0.00,WUHU216HW,2013-10-08 09:16:00,
2013-10-08 05:21:00,39.0,36.8,30.36,WNW,293,0.0,0.0,92,0.00,,,0.00,WUHU216HW,2013-10-08 09:21:00,
2013-10-08 05:26:00,39.0,36.8,30.36,West,270,0.0,0.0,92,0.00,,,0.00,WUHU216HW,2013-10-08 09:26:00,
2013-10-08 05:31:00,39.0,36.8,30.36,WSW,248,0.0,0.0,92,0.00,,,0.00,WUHU216HW,2013-10-08 09:31:00,
2013-10-08 05:37:00,39.0,36.8,30.36,WNW,293,0.0,0.0,92,0.00,,,0.00,WUHU216HW,2013-10-08 09:37:00,
2013-10-08 05:42:00,39.0,36.8,30.36,West,270,0.0,0.0,92,0.00,,,0.00,WUHU216HW,2013-10-08 09:42:00,
2013-10-08 05:47:00,39.0,36.8,30.36,West,270,0.0,0.0,92,0.00,,,0.00,WUHU216HW,2013-10-08 09:47:00,
2013-10-08 05:52:00,39.0,36.8,30.36,WNW,293,0.0,0.0,92,0.00,,,0.00,WUHU216HW,2013-10-08 09:52:00,
2013-10-08 05:57:00,38.8,36.6,30.37,WNW,293,0.0,0.0,92,0.00,,,0.00,WUHU216HW,2013-10-08 09:57:00,
2013-10-08 06:02:00,38.6,36.5,30.38,West,270,0.0,0.0,92,0.00,,,0.00,WUHU216HW,2013-10-08 10:02:00,
2013-10-08 06:07:00,38.6,36.5,30.37,WNW,293,0.0,0.0,92,0.00,,,0.00,WUHU216HW,2013-10-08 10:07:00,
2013-10-08 06:12:00,38.6,36.5,30.37,WSW,248,0.0,0.0,92,0.00,,,0.00,WUHU216HW,2013-10-08 10:12:00,
2013-10-08 06:17:00,38.8,36.6,30.38,West,270,0.0,0.0,92,0.00,,,0.00,WUHU216HW,2013-10-08 10:17:00,
2013-10-08 06:22:00,38.8,36.6,30.38,West,270,0.0,0.0,92,0.00,,,0.00,WUHU216HW,2013-10-08 10:22:00,
2013-10-08 06:27:00,38.8,36.6,30.38,WNW,293,0.0,0.0,92,0.00,,,0.00,WUHU216HW,2013-10-08 10:27:00,
2013-10-08 06:32:00,38.4,36.3,30.39,West,270,0.0,0.0,92,0.00,,,0.00,WUHU216HW,2013-10-08 10:32:00,
2013-10-08 06:37:00,38.4,36.3,30.39,WNW,293,0.0,0.0,92,0.00,,,0.00,WUHU216HW,2013-10-08 10:37:00,
2013-10-08 06:42:00,38.4,36.3,30.39,WNW,293,0.0,0.0,92,0.00,,,0.00,WUHU216HW,2013-10-08 10:42:00,
2013-10-08 06:47:00,38.4,36.3,30.39,West,270,0.0,0.0,92,0.00,,,0.00,WUHU216HW,2013-10-08 10:47:00,
2013-10-08 06:52:00,38.4,36.3,30.40,West,270,0.0,0.0,92,0.00,,,0.00,WUHU216HW,2013-10-08 10:52:00,
2013-10-08 06:58:00,38.3,36.1,30.40,West,270,0.0,0.0,92,0.00,,,0.00,WUHU216HW,2013-10-08 10:58:00,
2013-10-08 07:03:00,38.3,36.1,30.40,WNW,293,0.0,0.0,92,0.00,,,0.00,WUHU216HW,2013-10-08 11:03:00,
2013-10-08 07:08:00,38.1,35.9,30.40,WNW,293,0.0,0.0,92,0.00,,,0.00,WUHU216HW,2013-10-08 11:08:00,
2013-10-08 07:13:00,37.9,35.7,30.40,WSW,248,0.0,0.0,92,0.00,,,0.00,WUHU216HW,2013-10-08 11:13:00,
2013-10-08 07:18:00,37.9,35.7,30.40,West,270,0.0,0.0,92,0.00,,,0.00,WUHU216HW,2013-10-08 11:18:00,
2013-10-08 07:23:00,37.9,35.7,30.40,West,270,0.0,0.0,92,0.00,,,0.00,WUHU216HW,2013-10-08 11:23:00,
2013-10-08 07:28:00,37.9,35.7,30.40,WNW,293,0.0,0.0,92,0.00,,,0.00,WUHU216HW,2013-10-08 11:28:00,
2013-10-08 07:33:00,37.9,35.7,30.40,WNW,293,0.0,0.0,92,0.00,,,0.00,WUHU216HW,2013-10-08 11:33:00,
2013-10-08 07:38:00,37.9,35.7,30.40,WNW,293,0.0,0.0,92,0.00,,,0.00,WUHU216HW,2013-10-08 11:38:00,
2013-10-08 07:43:00,37.9,35.7,30.41,West,270,0.0,0.0,92,0.00,,,0.00,WUHU216HW,2013-10-08 11:43:00,
2013-10-08 07:48:00,38.1,35.9,30.41,WSW,248,0.0,0.0,92,0.00,,,0.00,WUHU216HW,2013-10-08 11:48:00,
2013-10-08 07:53:00,38.4,36.3,30.41,WNW,293,0.0,0.0,92,0.00,,,0.00,WUHU216HW,2013-10-08 11:53:00,
2013-10-08 07:58:00,38.6,36.5,30.42,West,270,0.0,0.0,92,0.00,,,0.00,WUHU216HW,2013-10-08 11:58:00,
2013-10-08 08:03:00,39.0,37.1,30.42,West,270,0.0,0.0,93,0.00,,,0.00,WUHU216HW,2013-10-08 12:03:00,
2013-10-08 08:08:00,39.3,37.4,30.42,WNW,293,0.0,0.0,93,0.00,,,0.00,WUHU216HW,2013-10-08 12:08:00,
2013-10-08 08:14:00,39.7,37.8,30.42,West,270,0.0,0.0,93,0.00,,,0.00,WUHU216HW,2013-10-08 12:14:00,
2013-10-08 08:19:00,40.2,38.3,30.42,WNW,293,0.0,0.0,93,0.00,,,0.00,WUHU216HW,2013-10-08 12:19:00,
2013-10-08 08:24:00,40.8,38.6,30.42,West,270,0.0,0.0,92,0.00,,,0.00,WUHU216HW,2013-10-08 12:24:00,
2013-10-08 08:29:00,41.3,39.4,30.43,West,270,0.0,0.0,93,0.00,,,0.00,WUHU216HW,2013-10-08 12:29:00,
2013-10-08 08:34:00,41.9,40.0,30.43,WNW,293,0.0,0.0,93,0.00,,,0.00,WUHU216HW,2013-10-08 12:34:00,
2013-10-08 08:39:00,42.4,40.2,30.43,WNW,293,0.0,0.0,92,0.00,,,0.00,WUHU216HW,2013-10-08 12:39:00,
2013-10-08 08:44:00,43.1,41.0,30.43,WNW,293,0.0,0.0,92,0.00,,,0.00,WUHU216HW,2013-10-08 12:44:00,
2013-10-08 08:49:00,43.5,41.3,30.43,WSW,248,0.0,0.0,92,0.00,,,0.00,WUHU216HW,2013-10-08 12:49:00,
2013-10-08 08:54:00,43.8,41.7,30.43,WSW,248,0.0,0.0,92,0.00,,,0.00,WUHU216HW,2013-10-08 12:54:00,
2013-10-08 08:59:00,44.4,42.2,30.43,WSW,248,0.0,0.0,92,0.00,,,0.00,WUHU216HW,2013-10-08 12:59:00,
2013-10-08 09:04:00,45.1,42.9,30.43,West,270,0.0,0.0,92,0.00,,,0.00,WUHU216HW,2013-10-08 13:04:00,
2013-10-08 09:09:00,45.6,43.2,30.43,WNW,293,0.0,0.0,91,0.00,,,0.00,WUHU216HW,2013-10-08 13:09:00,
2013-10-08 09:18:00,46.5,44.1,30.43,WNW,293,0.0,0.0,91,0.00,,,0.00,WUHU216HW,2013-10-08 13:18:00,
2013-10-08 09:23:00,48.7,45.9,30.43,West,270,0.0,0.0,90,0.00,,,0.00,WUHU216HW,2013-10-08 13:23:00,
2013-10-08 09:28:00,50.0,46.5,30.43,West,270,0.0,0.0,88,0.00,,,0.00,WUHU216HW,2013-10-08 13:28:00,
2013-10-08 09:33:00,51.6,47.8,30.43,WSW,248,0.0,0.0,87,0.00,,,0.00,WUHU216HW,2013-10-08 13:33:00,
2013-10-08 09:38:00,52.7,48.5,30.44,WNW,293,0.0,0.0,86,0.00,,,0.00,WUHU216HW,2013-10-08 13:38:00,
2013-10-08 09:44:00,53.7,49.3,30.44,WSW,248,0.0,0.0,85,0.00,,,0.00,WUHU216HW,2013-10-08 13:44:00,
2013-10-08 09:49:00,55.7,50.6,30.43,West,270,0.0,0.0,83,0.00,,,0.00,WUHU216HW,2013-10-08 13:49:00,
2013-10-08 09:54:00,57.0,51.5,30.44,SSW,203,0.0,0.0,82,0.00,,,0.00,WUHU216HW,2013-10-08 13:54:00,
2013-10-08 09:59:00,59.0,53.2,30.44,WSW,248,0.0,0.0,81,0.00,,,0.00,WUHU216HW,2013-10-08 13:59:00,
2013-10-08 10:04:00,61.3,54.4,30.44,NW,315,0.0,0.0,78,0.00,,,0.00,WUHU216HW,2013-10-08 14:04:00,
2013-10-08 10:09:00,62.4,55.0,30.44,SW,225,0.0,0.0,77,0.00,,,0.00,WUHU216HW,2013-10-08 14:09:00,
2013-10-08 10:14:00,63.8,56.1,30.44,WSW,248,0.0,0.0,76,0.00,,,0.00,WUHU216HW,2013-10-08 14:14:00,
2013-10-08 10:19:00,66.0,57.0,30.44,NW,315,0.0,0.0,73,0.00,,,0.00,WUHU216HW,2013-10-08 14:19:00,
2013-10-08 10:24:00,67.1,57.3,30.45,NW,315,0.0,0.0,71,0.00,,,0.00,WUHU216HW,2013-10-08 14:24:00,
2013-10-08 10:29:00,69.6,58.5,30.44,WSW,248,0.0,0.0,68,0.00,,,0.00,WUHU216HW,2013-10-08 14:29:00,
2013-10-08 10:34:00,70.8,58.9,30.44,SW,225,0.0,0.0,66,0.00,,,0.00,WUHU216HW,2013-10-08 14:34:00,
2013-10-08 10:39:00,70.1,54.7,30.44,South,180,0.0,1.5,58,0.00,,,0.00,WUHU216HW,2013-10-08 14:39:00,
2013-10-08 10:44:00,69.8,54.3,30.44,SSE,158,0.0,4.2,58,0.00,,,0.00,WUHU216HW,2013-10-08 14:44:00,
2013-10-08 10:49:00,70.3,53.3,30.44,SE,135,1.5,4.2,55,0.00,,,0.00,WUHU216HW,2013-10-08 14:49:00,
2013-10-08 10:54:00,69.6,52.7,30.44,SSE,158,4.0,4.0,55,0.00,,,0.00,WUHU216HW,2013-10-08 14:54:00,
2013-10-08 11:00:00,68.3,50.5,30.45,SSE,158,4.6,5.5,53,0.00,,,0.00,WUHU216HW,2013-10-08 15:00:00,
2013-10-08 11:05:00,67.6,50.3,30.44,SSE,158,2.4,5.5,54,0.00,,,0.00,WUHU216HW,2013-10-08 15:05:00,
2013-10-08 11:10:00,67.1,49.3,30.44,SSE,158,6.2,6.2,53,0.00,,,0.00,WUHU216HW,2013-10-08 15:10:00,
2013-10-08 11:15:00,66.0,48.8,30.44,SSE,158,8.7,8.7,54,0.00,,,0.00,WUHU216HW,2013-10-08 15:15:00,
2013-10-08 11:20:00,65.4,48.3,30.44,SSE,158,6.4,8.7,54,0.00,,,0.00,WUHU216HW,2013-10-08 15:20:00,
2013-10-08 11:25:00,65.4,48.8,30.44,SSE,158,7.1,8.7,55,0.00,,,0.00,WUHU216HW,2013-10-08 15:25:00,
2013-10-08 11:30:00,66.0,49.3,30.44,SSE,158,8.7,8.7,55,0.00,,,0.00,WUHU216HW,2013-10-08 15:30:00,
2013-10-08 11:35:00,66.2,50.0,30.44,SSE,158,10.5,10.5,56,0.00,,,0.00,WUHU216HW,2013-10-08 15:35:00,
2013-10-08 11:40:00,66.2,50.0,30.44,SSE,158,7.6,10.5,56,0.00,,,0.00,WUHU216HW,2013-10-08 15:40:00,
2013-10-08 11:45:00,66.5,50.8,30.44,SSE,158,11.4,11.4,57,0.00,,,0.00,WUHU216HW,2013-10-08 15:45:00,
2013-10-08 11:50:00,66.0,50.6,30.44,SSE,158,10.5,12.3,58,0.00,,,0.00,WUHU216HW,2013-10-08 15:50:00,
2013-10-08 11:55:00,65.6,50.9,30.44,SSE,158,13.6,15.8,59,0.00,,,0.00,WUHU216HW,2013-10-08 15:55:00,
2013-10-08 12:00:00,65.4,51.2,30.44,SSE,158,13.1,15.8,60,0.00,,,0.00,WUHU216HW,2013-10-08 16:00:00,
2013-10-08 12:05:00,65.3,51.0,30.44,SSE,158,10.7,13.6,60,0.00,,,0.00,WUHU216HW,2013-10-08 16:05:00,
2013-10-08 12:10:00,65.1,50.9,30.44,SSE,158,10.7,12.5,60,0.00,,,0.00,WUHU216HW,2013-10-08 16:10:00,
2013-10-08 12:16:00,64.9,50.2,30.44,South,180,12.0,12.3,59,0.00,,,0.00,WUHU216HW,2013-10-08 16:16:00,
2013-10-08 12:21:00,65.3,50.5,30.44,SSE,158,14.5,14.5,59,0.00,,,0.00,WUHU216HW,2013-10-08 16:21:00,
2013-10-08 12:26:00,65.8,50.6,30.44,SSE,158,10.7,14.5,58,0.00,,,0.00,WUHU216HW,2013-10-08 16:26:00,
2013-10-08 12:31:00,66.0,51.3,30.44,South,180,10.5,14.5,59,0.00,,,0.00,WUHU216HW,2013-10-08 16:31:00,
2013-10-08 12:36:00,66.0,52.6,30.44,SSE,158,9.1,14.0,62,0.00,,,0.00,WUHU216HW,2013-10-08 16:36:00,
2013-10-08 12:41:00,65.8,52.0,30.44,SSE,158,13.1,14.0,61,0.00,,,0.00,WUHU216HW,2013-10-08 16:41:00,
2013-10-08 12:46:00,65.3,52.3,30.44,SSE,158,12.9,14.3,63,0.00,,,0.00,WUHU216HW,2013-10-08 16:46:00,
2013-10-08 12:51:00,65.3,52.3,30.44,SSE,158,12.9,14.3,63,0.00,,,0.00,WUHU216HW,2013-10-08 16:51:00,
2013-10-08 12:56:00,65.1,52.5,30.44,SSE,158,12.9,13.6,64,0.00,,,0.00,WUHU216HW,2013-10-08 16:56:00,
2013-10-08 13:01:00,65.1,52.1,30.43,SSE,158,14.0,14.0,63,0.00,,,0.00,WUHU216HW,2013-10-08 17:01:00,
2013-10-08 13:06:00,64.9,52.8,30.43,SSE,158,14.9,14.9,65,0.00,,,0.00,WUHU216HW,2013-10-08 17:06:00,
2013-10-08 13:11:00,65.3,53.6,30.43,SSE,158,12.5,15.2,66,0.00,,,0.00,WUHU216HW,2013-10-08 17:11:00,
2013-10-08 13:16:00,65.3,53.1,30.43,SSE,158,14.5,15.2,65,0.00,,,0.00,WUHU216HW,2013-10-08 17:16:00,
2013-10-08 13:21:00,65.1,52.1,30.43,South,180,15.6,15.6,63,0.00,,,0.00,WUHU216HW,2013-10-08 17:21:00,
2013-10-08 13:26:00,65.3,52.3,30.43,SSE,158,15.4,15.6,63,0.00,,,0.00,WUHU216HW,2013-10-08 17:26:00,
2013-10-08 13:31:00,65.3,52.7,30.43,South,180,18.3,18.3,64,0.00,,,0.00,WUHU216HW,2013-10-08 17:31:00,
2013-10-08 13:36:00,65.6,51.8,30.43,SSE,158,17.2,18.3,61,0.00,,,0.00,WUHU216HW,2013-10-08 17:36:00,
2013-10-08 13:42:00,65.8,53.2,30.43,SSE,158,14.3,18.3,64,0.00,,,0.00,WUHU216HW,2013-10-08 17:42:00,
2013-10-08 13:47:00,66.2,52.3,30.42,SSE,158,12.0,14.9,61,0.00,,,0.00,WUHU216HW,2013-10-08 17:47:00,
2013-10-08 13:52:00,66.5,52.3,30.42,SSE,158,9.6,14.9,60,0.00,,,0.00,WUHU216HW,2013-10-08 17:52:00,
2013-10-08 13:57:00,66.9,51.6,30.43,SSE,158,13.1,14.9,58,0.00,,,0.00,WUHU216HW,2013-10-08 17:57:00,
2013-10-08 14:02:00,66.9,52.1,30.42,SSE,158,15.2,16.7,59,0.00,,,0.00,WUHU216HW,2013-10-08 18:02:00,
2013-10-08 14:07:00,66.7,53.2,30.42,SSE,158,14.5,16.7,62,0.00,,,0.00,WUHU216HW,2013-10-08 18:07:00,
2013-10-08 14:12:00,66.9,52.6,30.42,South,180,11.4,15.2,60,0.00,,,0.00,WUHU216HW,2013-10-08 18:12:00,
2013-10-08 14:17:00,66.9,53.4,30.42,SSE,158,14.3,14.3,62,0.00,,,0.00,WUHU216HW,2013-10-08 18:17:00,
2013-10-08 14:22:00,66.9,53.4,30.42,SSE,158,15.8,15.8,61,0.00,,,0.00,WUHU216HW,2013-10-08 18:22:00,
2013-10-08 14:27:00,66.9,53.4,30.42,SSE,158,15.8,15.8,62,0.00,,,0.00,WUHU216HW,2013-10-08 18:27:00,
2013-10-08 14:32:00,67.2,53.3,30.42,SSE,158,13.4,15.8,61,0.00,,,0.00,WUHU216HW,2013-10-08 18:32:00,
2013-10-08 14:37:00,67.1,53.2,30.41,SSE,158,16.1,16.5,61,0.00,,,0.00,WUHU216HW,2013-10-08 18:37:00,
2013-10-08 14:42:00,67.2,53.3,30.41,SSE,158,15.6,16.5,61,0.00,,,0.00,WUHU216HW,2013-10-08 18:42:00,
2013-10-08 14:47:00,66.9,53.4,30.41,SSE,158,13.6,16.1,62,0.00,,,0.00,WUHU216HW,2013-10-08 18:47:00,
2013-10-08 14:52:00,65.8,54.1,30.41,SSE,158,15.8,15.8,66,0.00,,,0.00,WUHU216HW,2013-10-08 18:52:00,
2013-10-08 14:57:00,66.7,54.1,30.41,SSE,158,17.2,17.2,64,0.00,,,0.00,WUHU216HW,2013-10-08 18:57:00,
2013-10-08 15:03:00,66.9,53.8,30.41,SSE,158,14.9,17.2,63,0.00,,,0.00,WUHU216HW,2013-10-08 19:03:00,
2013-10-08 15:08:00,67.4,54.3,30.41,SSE,158,14.5,17.2,63,0.00,,,0.00,WUHU216HW,2013-10-08 19:08:00,
2013-10-08 15:13:00,67.6,53.6,30.41,SSE,158,15.6,16.7,61,0.00,,,0.00,WUHU216HW,2013-10-08 19:13:00,
2013-10-08 15:18:00,67.2,53.7,30.41,SSE,158,15.6,16.7,62,0.00,,,0.00,WUHU216HW,2013-10-08 19:18:00,
2013-10-08 15:23:00,67.1,54.0,30.41,SSE,158,18.7,18.7,63,0.00,,,0.00,WUHU216HW,2013-10-08 19:23:00,
2013-10-08 15:28:00,66.9,53.0,30.41,SSE,158,17.0,18.7,61,0.00,,,0.00,WUHU216HW,2013-10-08 19:28:00,
2013-10-08 15:33:00,67.2,53.3,30.41,SSE,158,10.2,18.7,61,0.00,,,0.00,WUHU216HW,2013-10-08 19:33:00,
2013-10-08 15:38:00,67.1,52.7,30.41,South,180,18.1,20.3,60,0.00,,,0.00,WUHU216HW,2013-10-08 19:38:00,
2013-10-08 15:43:00,67.2,52.4,30.41,South,180,18.7,20.3,59,0.00,,,0.00,WUHU216HW,2013-10-08 19:43:00,
2013-10-08 15:48:00,67.2,52.9,30.41,SSE,158,15.6,18.7,60,0.00,,,0.00,WUHU216HW,2013-10-08 19:48:00,
2013-10-08 15:53:00,67.2,52.9,30.41,SSE,158,14.9,15.6,60,0.00,,,0.00,WUHU216HW,2013-10-08 19:53:00,
2013-10-08 15:58:00,67.2,52.4,30.41,SSE,158,16.5,16.5,59,0.00,,,0.00,WUHU216HW,2013-10-08 19:58:00,
2013-10-08 16:03:00,67.2,52.9,30.41,South,180,12.3,17.4,60,0.00,,,0.00,WUHU216HW,2013-10-08 20:03:00,
2013-10-08 16:08:00,67.8,53.4,30.41,SSE,158,10.7,17.4,60,0.00,,,0.00,WUHU216HW,2013-10-08 20:08:00,
2013-10-08 16:13:00,67.8,52.9,30.41,South,180,10.9,12.3,59,0.00,,,0.00,WUHU216HW,2013-10-08 20:13:00,
2013-10-08 16:19:00,67.6,53.2,30.41,SSE,158,14.3,14.5,60,0.00,,,0.00,WUHU216HW,2013-10-08 20:19:00,
2013-10-08 16:24:00,67.2,53.3,30.41,SSE,158,12.7,14.5,61,0.00,,,0.00,WUHU216HW,2013-10-08 20:24:00,
2013-10-08 16:29:00,66.0,52.6,30.41,SSE,158,11.8,14.3,62,0.00,,,0.00,WUHU216HW,2013-10-08 20:29:00,
2013-10-08 16:34:00,63.6,52.0,30.41,South,180,8.5,14.0,66,0.00,,,0.00,WUHU216HW,2013-10-08 20:34:00,
2013-10-08 16:39:00,62.2,51.9,30.40,South,180,9.1,14.0,69,0.00,,,0.00,WUHU216HW,2013-10-08 20:39:00,
2013-10-08 16:44:00,61.5,52.0,30.41,SSE,158,13.6,13.6,71,0.00,,,0.00,WUHU216HW,2013-10-08 20:44:00,
2013-10-08 16:49:00,60.6,51.9,30.41,SSE,158,10.5,14.0,73,0.00,,,0.00,WUHU216HW,2013-10-08 20:49:00,
2013-10-08 16:54:00,60.6,52.8,30.41,SSE,158,10.2,14.5,74,0.00,,,0.00,WUHU216HW,2013-10-08 20:54:00,
2013-10-08 16:59:00,63.5,53.9,30.40,SSE,158,9.8,14.5,71,0.00,,,0.00,WUHU216HW,2013-10-08 20:59:00,
2013-10-08 17:04:00,63.3,52.5,30.40,SSE,158,10.0,11.4,68,0.00,,,0.00,WUHU216HW,2013-10-08 21:04:00,
2013-10-08 17:09:00,61.5,52.5,30.40,SSE,158,5.8,10.5,71,0.00,,,0.00,WUHU216HW,2013-10-08 21:09:00,
2013-10-08 17:14:00,60.9,52.3,30.40,SSE,158,6.2,8.9,73,0.00,,,0.00,WUHU216HW,2013-10-08 21:14:00,
2013-10-08 17:19:00,60.4,52.8,30.41,SSE,158,4.4,8.0,76,0.00,,,0.00,WUHU216HW,2013-10-08 21:19:00,
2013-10-08 17:24:00,60.0,52.7,30.41,SSE,158,8.9,8.9,77,0.00,,,0.00,WUHU216HW,2013-10-08 21:24:00,
2013-10-08 17:29:00,59.7,52.8,30.40,South,180,4.6,8.9,78,0.00,,,0.00,WUHU216HW,2013-10-08 21:29:00,
2013-10-08 17:34:00,59.5,52.7,30.40,SSE,158,6.7,8.9,78,0.00,,,0.00,WUHU216HW,2013-10-08 21:34:00,
2013-10-08 17:40:00,59.1,52.7,30.41,SSE,158,5.8,7.1,79,0.00,,,0.00,WUHU216HW,2013-10-08 21:40:00,
2013-10-08 17:45:00,59.0,53.2,30.41,SSE,158,9.8,9.8,81,0.00,,,0.00,WUHU216HW,2013-10-08 21:45:00,
2013-10-08 17:50:00,58.8,53.0,30.41,SSE,158,5.8,9.8,81,0.00,,,0.00,WUHU216HW,2013-10-08 21:50:00,
2013-10-08 17:55:00,58.8,53.0,30.41,South,180,4.6,9.8,81,0.00,,,0.00,WUHU216HW,2013-10-08 21:55:00,
2013-10-08 18:00:00,58.8,53.0,30.41,South,180,5.5,7.6,81,0.00,,,0.00,WUHU216HW,2013-10-08 22:00:00,
2013-10-08 18:05:00,58.8,53.0,30.41,South,180,8.2,8.2,81,0.00,,,0.00,WUHU216HW,2013-10-08 22:05:00,
2013-10-08 18:10:00,58.6,52.8,30.41,SSE,158,8.5,9.3,81,0.00,,,0.00,WUHU216HW,2013-10-08 22:10:00,
2013-10-08 18:15:00,58.6,52.8,30.41,SSE,158,7.6,10.0,81,0.00,,,0.00,WUHU216HW,2013-10-08 22:15:00,
2013-10-08 18:20:00,58.6,53.1,30.41,SSE,158,8.9,10.0,82,0.00,,,0.00,WUHU216HW,2013-10-08 22:20:00,
2013-10-08 18:25:00,58.4,52.9,30.41,SSE,158,4.6,8.9,82,0.00,,,0.00,WUHU216HW,2013-10-08 22:25:00,
2013-10-08 18:30:00,58.2,52.4,30.41,South,180,6.2,8.9,81,0.00,,,0.00,WUHU216HW,2013-10-08 22:30:00,
2013-10-08 18:35:00,58.4,52.9,30.41,SSE,158,8.9,10.0,82,0.00,,,0.00,WUHU216HW,2013-10-08 22:35:00,
2013-10-08 18:40:00,58.2,52.8,30.41,SSE,158,7.3,10.0,82,0.00,,,0.00,WUHU216HW,2013-10-08 22:40:00,
2013-10-08 18:45:00,58.2,53.1,30.41,SSE,158,6.0,8.9,83,0.00,,,0.00,WUHU216HW,2013-10-08 22:45:00,
2013-10-08 18:50:00,58.2,53.1,30.42,SSE,158,9.1,9.1,83,0.00,,,0.00,WUHU216HW,2013-10-08 22:50:00,
2013-10-08 18:55:00,58.2,53.4,30.42,SSE,158,7.6,9.1,84,0.00,,,0.00,WUHU216HW,2013-10-08 22:55:00,
2013-10-08 19:01:00,58.1,53.2,30.41,SSE,158,9.1,9.1,84,0.00,,,0.00,WUHU216HW,2013-10-08 23:01:00,
2013-10-08 19:06:00,58.1,53.6,30.41,SSE,158,8.0,9.1,85,0.00,,,0.00,WUHU216HW,2013-10-08 23:06:00,
2013-10-08 19:11:00,58.1,53.6,30.41,South,180,5.3,8.5,85,0.00,,,0.00,WUHU216HW,2013-10-08 23:11:00,
2013-10-08 19:16:00,57.9,53.4,30.41,SSE,158,6.0,8.0,85,0.00,,,0.00,WUHU216HW,2013-10-08 23:16:00,
2013-10-08 19:21:00,57.9,53.7,30.41,SSE,158,4.9,6.7,86,0.00,,,0.00,WUHU216HW,2013-10-08 23:21:00,
2013-10-08 19:26:00,57.7,53.8,30.41,SSE,158,8.9,8.9,87,0.00,,,0.00,WUHU216HW,2013-10-08 23:26:00,
2013-10-08 19:31:00,57.7,53.8,30.40,South,180,5.1,8.9,87,0.00,,,0.00,WUHU216HW,2013-10-08 23:31:00,
2013-10-08 19:36:00,57.5,53.7,30.40,SSE,158,7.1,8.9,87,0.00,,,0.00,WUHU216HW,2013-10-08 23:36:00,
2013-10-08 19:41:00,57.5,53.7,30.41,SSE,158,5.5,7.1,87,0.00,,,0.00,WUHU216HW,2013-10-08 23:41:00,
2013-10-08 19:46:00,57.5,53.7,30.41,SSE,158,7.8,8.2,87,0.00,,,0.00,WUHU216HW,2013-10-08 23:46:00,
2013-10-08 19:51:00,57.7,53.8,30.41,SSE,158,5.1,8.2,87,0.00,,,0.00,WUHU216HW,2013-10-08 23:51:00,
2013-10-08 19:56:00,57.7,53.8,30.40,SSE,158,6.4,7.8,87,0.00,,,0.00,WUHU216HW,2013-10-08 23:56:00,
2013-10-08 20:01:00,57.7,53.8,30.40,SE,135,4.6,7.3,87,0.00,,,0.00,WUHU216HW,2013-10-09 00:01:00,
2013-10-08 20:06:00,57.7,54.2,30.40,SSE,158,2.9,6.4,88,0.00,,,0.00,WUHU216HW,2013-10-09 00:06:00,
2013-10-08 20:11:00,57.3,53.8,30.41,South,180,3.5,6.2,88,0.00,,,0.00,WUHU216HW,2013-10-09 00:11:00,
2013-10-08 20:16:00,57.2,53.6,30.41,South,180,4.4,6.2,88,0.00,,,0.00,WUHU216HW,2013-10-09 00:16:00,
2013-10-08 20:22:00,57.0,53.4,30.41,South,180,0.0,5.1,88,0.00,,,0.00,WUHU216HW,2013-10-09 00:22:00,
2013-10-08 20:27:00,56.6,53.1,30.41,SSW,203,0.0,4.4,88,0.00,,,0.00,WUHU216HW,2013-10-09 00:27:00,
2013-10-08 20:32:00,55.7,52.2,30.41,SE,135,0.0,0.0,88,0.00,,,0.00,WUHU216HW,2013-10-09 00:32:00,
2013-10-08 20:37:00,55.2,51.6,30.41,WSW,248,0.0,0.0,88,0.00,,,0.00,WUHU216HW,2013-10-09 00:37:00,
2013-10-08 20:42:00,55.0,51.5,30.41,South,180,2.2,2.2,88,0.00,,,0.00,WUHU216HW,2013-10-09 00:42:00,
2013-10-08 20:47:00,55.2,52.0,30.41,South,180,2.9,2.9,89,0.00,,,0.00,WUHU216HW,2013-10-09 00:47:00,
2013-10-08 20:52:00,55.2,52.3,30.41,SSE,158,3.8,6.2,90,0.00,,,0.00,WUHU216HW,2013-10-09 00:52:00,
2013-10-08 20:57:00,55.7,53.1,30.41,South,180,3.8,6.2,91,0.00,,,0.00,WUHU216HW,2013-10-09 00:57:00,
2013-10-08 21:02:00,55.9,53.3,30.41,SSW,203,4.4,4.4,91,0.00,,,0.00,WUHU216HW,2013-10-09 01:02:00,
2013-10-08 21:07:00,56.3,53.4,30.41,SSE,158,2.9,6.7,90,0.00,,,0.00,WUHU216HW,2013-10-09 01:07:00,
2013-10-08 21:12:00,56.3,53.0,30.41,SSW,203,0.0,6.7,89,0.00,,,0.00,WUHU216HW,2013-10-09 01:12:00,
2013-10-08 21:17:00,56.4,53.2,30.41,WSW,248,0.0,10.2,89,0.00,,,0.00,WUHU216HW,2013-10-09 01:17:00,
2013-10-08 21:22:00,56.3,53.0,30.41,SW,225,2.4,10.2,89,0.00,,,0.00,WUHU216HW,2013-10-09 01:22:00,
2013-10-08 21:27:00,56.3,53.0,30.41,SSE,158,6.0,6.0,89,0.00,,,0.00,WUHU216HW,2013-10-09 01:27:00,
2013-10-08 21:32:00,56.3,52.7,30.42,SSW,203,0.0,6.0,88,0.00,,,0.00,WUHU216HW,2013-10-09 01:32:00,
2013-10-08 21:38:00,56.1,52.5,30.42,SSE,158,2.9,6.0,88,0.00,,,0.00,WUHU216HW,2013-10-09 01:38:00,
2013-10-08 21:43:00,56.3,53.0,30.42,SE,135,3.8,5.8,89,0.00,,,0.00,WUHU216HW,2013-10-09 01:43:00,
2013-10-08 21:48:00,56.4,52.9,30.42,South,180,5.8,5.8,88,0.00,,,0.00,WUHU216HW,2013-10-09 01:48:00,
2013-10-08 21:53:00,56.6,52.8,30.42,SSE,158,2.2,5.8,87,0.00,,,0.00,WUHU216HW,2013-10-09 01:53:00,
2013-10-08 21:58:00,56.8,52.9,30.42,SSE,158,5.3,5.3,87,0.00,,,0.00,WUHU216HW,2013-10-09 01:58:00,
2013-10-08 22:03:00,57.0,52.8,30.42,WNW,293,0.0,6.0,86,0.00,,,0.00,WUHU216HW,2013-10-09 02:03:00,
2013-10-08 22:08:00,57.0,52.1,30.42,WSW,248,6.2,6.2,84,0.00,,,0.00,WUHU216HW,2013-10-09 02:08:00,
2013-10-08 22:13:00,57.0,51.5,30.42,SW,225,0.0,10.7,82,0.00,,,0.00,WUHU216HW,2013-10-09 02:13:00,
2013-10-08 22:18:00,57.0,50.9,30.42,SE,135,3.8,10.7,80,0.00,,,0.00,WUHU216HW,2013-10-09 02:18:00,
2013-10-08 22:23:00,57.0,50.5,30.42,East,90,0.0,4.6,79,0.00,,,0.00,WUHU216HW,2013-10-09 02:23:00,
2013-10-08 22:28:00,56.8,50.0,30.42,WSW,248,0.0,7.3,78,0.00,,,0.00,WUHU216HW,2013-10-09 02:28:00,
2013-10-08 22:33:00,56.4,49.2,30.42,West,270,0.0,7.3,77,0.00,,,0.00,WUHU216HW,2013-10-09 02:33:00,
2013-10-08 22:38:00,56.3,49.1,30.43,SSW,203,5.1,5.1,77,0.00,,,0.00,WUHU216HW,2013-10-09 02:38:00,
2013-10-08 22:43:00,55.9,48.4,30.43,SW,225,2.4,5.1,76,0.00,,,0.00,WUHU216HW,2013-10-09 02:43:00,
2013-10-08 22:48:00,55.7,48.2,30.43,SSW,203,2.0,2.4,76,0.00,,,0.00,WUHU216HW,2013-10-09 02:48:00,
2013-10-08 22:54:00,55.7,48.2,30.43,SSW,203,0.0,2.0,76,0.00,,,0.00,WUHU216HW,2013-10-09 02:54:00,
2013-10-08 22:59:00,55.5,48.0,30.43,SW,225,0.0,5.1,76,0.00,,,0.00,WUHU216HW,2013-10-09 02:59:00,
2013-10-08 23:04:00,55.2,47.7,30.43,South,180,0.0,5.1,76,0.00,,,0.00,WUHU216HW,2013-10-09 03:04:00,
2013-10-08 23:09:00,55.2,47.7,30.43,SW,225,0.0,0.0,76,0.00,,,0.00,WUHU216HW,2013-10-09 03:09:00,
2013-10-08 23:14:00,55.2,48.0,30.43,WSW,248,0.0,2.0,77,0.00,,,0.00,WUHU216HW,2013-10-09 03:14:00,
2013-10-08 23:19:00,54.6,47.5,30.43,SSW,203,0.0,2.0,77,0.00,,,0.00,WUHU216HW,2013-10-09 03:19:00,
2013-10-08 23:24:00,54.5,47.7,30.44,SSW,203,6.0,6.0,78,0.00,,,0.00,WUHU216HW,2013-10-09 03:24:00,
2013-10-08 23:29:00,54.3,47.9,30.44,NW,315,0.0,6.0,79,0.00,,,0.00,WUHU216HW,2013-10-09 03:29:00,
2013-10-08 23:34:00,54.1,47.7,30.43,SE,135,2.6,4.9,79,0.00,,,0.00,WUHU216HW,2013-10-09 03:34:00,
2013-10-08 23:39:00,53.7,47.8,30.43,WNW,293,0.0,2.6,80,0.00,,,0.00,WUHU216HW,2013-10-09 03:39:00,
2013-10-08 23:44:00,53.7,48.1,30.43,SSE,158,0.0,3.8,81,0.00,,,0.00,WUHU216HW,2013-10-09 03:44:00,
2013-10-08 23:49:00,53.7,48.1,30.43,SSW,203,1.5,3.8,81,0.00,,,0.00,WUHU216HW,2013-10-09 03:49:00,
2013-10-08 23:54:00,53.7,48.1,30.43,South,180,0.0,1.5,81,0.00,,,0.00,WUHU216HW,2013-10-09 03:54:00,
2013-10-08 23:59:00,53.7,48.1,30.43,South,180,0.0,0.0,81,0.00,,,0.00,WUHU216HW,2013-10-09 03:59:00,